Time;durP1;ratioP1;P1;durP2;ratioP2;P2;SDS_P1;SDS_P2;PMS_P1;PMS_P2;Temp;Humidity;BMP_temperature;BMP_pressure;BME280_temperature;BME280_humidity;BME280_pressure;Samples;Min_cycle;Max_cycle;Signal;HPM_P1;HPM_P2
2022/03/30 00:01:33;;;;;;;22.13;11.90;;;10.80;99.40;;;;;;4993359;28;20171;-34
2022/03/30 00:03:59;;;;;;;26.00;12.30;;;10.90;99.50;;;;;;4993603;28;20270;-34
2022/03/30 00:06:25;;;;;;;25.60;11.47;;;10.90;99.60;;;;;;4977566;28;20198;-34
2022/03/30 00:08:52;;;;;;;22.90;11.43;;;10.90;99.50;;;;;;4976931;28;20202;-34
2022/03/30 00:11:17;;;;;;;22.80;11.13;;;10.90;99.50;;;;;;5011154;28;20175;-34
2022/03/30 00:13:43;;;;;;;22.83;11.57;;;11.00;99.40;;;;;;4977261;28;20346;-34
2022/03/30 00:16:11;;;;;;;20.93;11.40;;;11.00;99.30;;;;;;4977340;28;20643;-34
2022/03/30 00:18:37;;;;;;;24.00;11.37;;;11.10;99.30;;;;;;4977258;28;20211;-35
2022/03/30 00:21:06;;;;;;;30.73;12.67;;;11.00;99.30;;;;;;5011200;28;20175;-34
2022/03/30 00:23:33;;;;;;;25.20;12.17;;;11.00;99.10;;;;;;4978608;28;20297;-34
2022/03/30 00:25:58;;;;;;;25.20;12.27;;;11.00;99.10;;;;;;4976823;28;20687;-34
2022/03/30 00:28:27;;;;;;;23.43;12.30;;;11.00;99.10;;;;;;4977241;28;20191;-34
2022/03/30 00:30:53;;;;;;;27.07;12.87;;;11.00;99.00;;;;;;4997276;28;20199;-34
2022/03/30 00:33:19;;;;;;;27.73;12.23;;;11.00;98.90;;;;;;4981382;28;20211;-34
2022/03/30 00:35:46;;;;;;;30.43;14.83;;;11.00;98.90;;;;;;4997486;28;20186;-34
2022/03/30 00:38:12;;;;;;;24.63;13.23;;;11.00;99.00;;;;;;4997185;28;20206;-34
2022/03/30 00:40:38;;;;;;;26.37;14.37;;;10.90;99.30;;;;;;5014802;28;20175;-34
2022/03/30 00:43:04;;;;;;;28.17;13.87;;;10.90;99.50;;;;;;4980979;28;20214;-34
2022/03/30 00:45:30;;;;;;;22.80;13.70;;;10.80;99.60;;;;;;4997224;28;20198;-34
2022/03/30 00:47:57;;;;;;;26.57;13.70;;;10.90;99.60;;;;;;4996772;28;20179;-34
2022/03/30 00:50:23;;;;;;;27.33;13.93;;;10.80;99.60;;;;;;4996739;28;20202;-34
2022/03/30 00:52:53;;;;;;;24.60;13.20;;;10.90;99.80;;;;;;4980631;28;20595;-34
2022/03/30 00:55:19;;;;;;;23.60;13.67;;;10.80;99.90;;;;;;4996844;28;20222;-35
2022/03/30 00:57:46;;;;;;;24.93;13.47;;;10.80;99.90;;;;;;4980704;28;20211;-34
2022/03/30 01:00:15;;;;;;;29.57;13.87;;;10.80;99.90;;;;;;4996856;28;20198;-34
2022/03/30 01:02:43;;;;;;;25.43;13.70;;;10.80;99.90;;;;;;4980546;28;20636;-34
2022/03/30 01:05:10;;;;;;;20.70;13.23;;;10.80;99.90;;;;;;5014376;28;20189;-34
2022/03/30 01:07:36;;;;;;;28.40;13.27;;;10.70;99.90;;;;;;4996651;28;20720;-35
2022/03/30 01:10:04;;;;;;;33.43;13.63;;;10.70;99.90;;;;;;4996589;28;20215;-34
2022/03/30 01:12:32;;;;;;;25.93;12.83;;;10.50;99.90;;;;;;4980452;28;20226;-34
2022/03/30 01:14:59;;;;;;;24.57;13.83;;;10.40;99.90;;;;;;4980274;28;20659;-34
2022/03/30 01:17:25;;;;;;;24.17;13.30;;;10.40;99.90;;;;;;4980627;28;20526;-34
2022/03/30 01:19:52;;;;;;;25.20;13.07;;;10.40;99.90;;;;;;5013828;28;20230;-34
2022/03/30 01:22:18;;;;;;;27.43;13.63;;;10.40;99.90;;;;;;4980281;28;20187;-34
2022/03/30 01:24:44;;;;;;;26.43;12.27;;;10.40;99.90;;;;;;4979859;28;20214;-34
2022/03/30 01:27:10;;;;;;;27.57;13.53;;;10.40;99.90;;;;;;4980157;28;20270;-34
2022/03/30 01:32:29;;;;;;;29.20;13.87;;;10.60;99.90;;;;;;4996206;28;20211;-34
2022/03/30 01:35:03;;;;;;;28.10;13.23;;;10.60;99.90;;;;;;4980328;28;20198;-34
2022/03/30 01:37:30;;;;;;;29.63;13.50;;;10.50;99.90;;;;;;4996177;28;20194;-34
2022/03/30 01:39:57;;;;;;;29.53;13.70;;;10.30;99.90;;;;;;4995470;28;20179;-34
2022/03/30 01:42:24;;;;;;;28.97;14.47;;;10.30;99.90;;;;;;4980015;28;20706;-34
2022/03/30 01:44:50;;;;;;;27.27;13.37;;;10.30;99.90;;;;;;4979548;28;20242;-34
2022/03/30 01:47:16;;;;;;;26.53;13.73;;;10.30;99.90;;;;;;4979898;28;20186;-34
2022/03/30 01:49:43;;;;;;;25.40;13.23;;;10.20;99.90;;;;;;4995561;28;20191;-34
2022/03/30 01:52:09;;;;;;;25.37;14.37;;;10.00;99.90;;;;;;4995842;28;20179;-34
2022/03/30 01:54:38;;;;;;;30.03;13.70;;;10.10;99.90;;;;;;4979584;28;20200;-34
2022/03/30 01:57:04;;;;;;;25.90;13.07;;;10.10;99.90;;;;;;4995905;28;20183;-34
2022/03/30 01:59:31;;;;;;;28.40;13.73;;;10.10;99.90;;;;;;4995421;28;20230;-34
2022/03/30 02:01:56;;;;;;;24.30;13.70;;;10.10;99.90;;;;;;4996061;28;20191;-34
2022/03/30 02:04:24;;;;;;;23.07;13.83;;;10.10;99.90;;;;;;4995886;28;20199;-34
2022/03/30 02:06:51;;;;;;;24.43;13.67;;;10.10;99.90;;;;;;5013404;28;20270;-34
2022/03/30 02:09:17;;;;;;;22.03;11.90;;;10.10;99.90;;;;;;4979319;28;20176;-34
2022/03/30 02:11:43;;;;;;;28.97;14.00;;;10.20;99.90;;;;;;4995674;28;20180;-34
2022/03/30 02:14:09;;;;;;;29.10;13.77;;;10.20;99.90;;;;;;4979689;28;20210;-34
2022/03/30 02:16:36;;;;;;;28.33;14.33;;;10.10;99.90;;;;;;4995551;28;20187;-34
2022/03/30 02:19:02;;;;;;;23.83;13.43;;;10.00;99.90;;;;;;4978910;28;20250;-34
2022/03/30 02:21:28;;;;;;;25.47;14.07;;;9.90;99.90;;;;;;4979372;28;20179;-36
2022/03/30 02:23:54;;;;;;;25.90;14.07;;;9.90;99.90;;;;;;4995203;28;20195;-34
2022/03/30 02:26:20;;;;;;;28.10;12.77;;;9.90;99.90;;;;;;4979046;28;20176;-34
2022/03/30 02:28:54;;;;;;;31.77;13.70;;;9.90;99.90;;;;;;4995527;28;20180;-34
2022/03/30 02:31:23;;;;;;;25.03;13.60;;;10.00;99.90;;;;;;4995378;28;20190;-34
2022/03/30 02:33:49;;;;;;;25.00;14.27;;;10.00;99.90;;;;;;4995295;28;20278;-34
2022/03/30 02:36:15;;;;;;;26.70;14.20;;;10.00;99.90;;;;;;4995114;28;20179;-34
2022/03/30 02:38:42;;;;;;;24.73;13.50;;;10.10;99.90;;;;;;4979017;28;20207;-35
2022/03/30 02:41:09;;;;;;;26.50;14.33;;;10.20;99.90;;;;;;4978654;28;20279;-34
2022/03/30 02:43:35;;;;;;;26.50;13.70;;;10.20;99.90;;;;;;4978719;28;20245;-34
2022/03/30 02:46:01;;;;;;;25.67;14.10;;;10.20;99.90;;;;;;4978742;28;20183;-34
2022/03/30 02:48:32;;;;;;;26.60;13.80;;;10.20;99.90;;;;;;4995089;28;20175;-34
2022/03/30 02:51:02;;;;;;;25.57;13.37;;;10.20;99.90;;;;;;4978229;28;20183;-34
2022/03/30 02:53:29;;;;;;;27.53;13.03;;;10.20;99.90;;;;;;4978285;28;20199;-34
2022/03/30 02:55:56;;;;;;;25.17;12.63;;;10.10;99.90;;;;;;4979492;28;20196;-34
2022/03/30 02:58:22;;;;;;;22.80;11.63;;;10.10;99.90;;;;;;4994665;28;20211;-34
2022/03/30 03:00:49;;;;;;;24.20;11.80;;;10.10;99.90;;;;;;4978530;28;20270;-34
2022/03/30 03:03:15;;;;;;;24.67;11.40;;;10.10;99.90;;;;;;4978269;28;20294;-34
2022/03/30 03:05:42;;;;;;;25.83;11.63;;;10.10;99.90;;;;;;4978508;28;20207;-34
2022/03/30 03:08:13;;;;;;;28.70;12.17;;;10.10;99.90;;;;;;4978117;28;20207;-34
2022/03/30 03:10:44;;;;;;;22.60;11.70;;;10.10;99.90;;;;;;5012121;28;20187;-35
2022/03/30 03:13:13;;;;;;;30.07;12.43;;;10.20;99.90;;;;;;5012000;28;20286;-34
2022/03/30 03:15:40;;;;;;;23.53;12.90;;;10.10;99.90;;;;;;4994548;28;20215;-34
2022/03/30 03:18:06;;;;;;;23.77;13.17;;;10.10;99.90;;;;;;4978208;28;20229;-34
2022/03/30 03:20:33;;;;;;;24.70;13.77;;;10.10;99.90;;;;;;4993975;28;20186;-34
2022/03/30 03:23:04;;;;;;;23.90;14.80;;;10.10;99.90;;;;;;4994147;28;20217;-34
2022/03/30 03:25:47;;;;;;;25.77;13.90;;;10.10;99.90;;;;;;4992832;28;20322;-34
2022/03/30 03:28:14;;;;;;;26.63;13.83;;;9.90;99.90;;;;;;5011929;28;20243;-34
2022/03/30 03:30:40;;;;;;;25.87;13.60;;;9.90;99.90;;;;;;4977696;28;20198;-34
2022/03/30 03:33:07;;;;;;;24.80;15.07;;;9.90;99.90;;;;;;4977592;28;20210;-34
2022/03/30 03:35:34;;;;;;;27.70;14.07;;;10.00;99.90;;;;;;4993972;28;20184;-34
2022/03/30 03:38:01;;;;;;;25.70;13.50;;;9.90;99.90;;;;;;5011703;28;20206;-34
2022/03/30 03:40:30;;;;;;;25.00;14.10;;;10.00;99.90;;;;;;4977712;28;20319;-34
2022/03/30 03:42:58;;;;;;;25.57;14.90;;;10.00;99.90;;;;;;4978456;28;20227;-32
2022/03/30 03:45:24;;;;;;;24.77;13.77;;;10.00;99.90;;;;;;4993903;28;20267;-33
2022/03/30 03:47:51;;;;;;;29.23;14.77;;;10.00;99.90;;;;;;4993764;28;20183;-32
2022/03/30 03:50:17;;;;;;;30.57;14.70;;;10.10;99.90;;;;;;4977185;28;20201;-32
2022/03/30 03:52:43;;;;;;;32.73;14.87;;;10.00;99.90;;;;;;4977578;28;20183;-32
2022/03/30 03:55:10;;;;;;;27.63;13.73;;;10.00;99.90;;;;;;4993663;28;20210;-32
2022/03/30 03:57:38;;;;;;;30.40;12.17;;;10.00;99.90;;;;;;4977322;28;20175;-32
2022/03/30 04:00:05;;;;;;;21.80;11.97;;;10.00;99.90;;;;;;4975274;28;20301;-32
2022/03/30 04:02:38;;;;;;;28.03;11.97;;;10.00;99.90;;;;;;4993069;28;20233;-32
2022/03/30 04:05:04;;;;;;;23.63;11.07;;;10.00;99.90;;;;;;4975811;28;20171;-32
2022/03/30 04:07:32;;;;;;;31.10;12.30;;;10.00;99.90;;;;;;4991781;28;20187;-32
2022/03/30 04:09:59;;;;;;;21.23;11.43;;;10.00;99.90;;;;;;4991691;28;20238;-32
2022/03/30 04:12:24;;;;;;;24.00;11.27;;;10.00;99.90;;;;;;4991942;28;20183;-32
2022/03/30 04:14:50;;;;;;;28.07;10.90;;;10.00;99.90;;;;;;5010846;28;20177;-32
2022/03/30 04:17:16;;;;;;;35.27;11.30;;;10.00;99.90;;;;;;4977311;28;20179;-32
2022/03/30 04:19:42;;;;;;;21.73;10.13;;;10.10;99.90;;;;;;4992933;28;20238;-33
2022/03/30 04:22:08;;;;;;;26.47;11.00;;;10.00;99.90;;;;;;4977367;28;20186;-32
2022/03/30 04:24:33;;;;;;;21.03;10.40;;;10.00;99.90;;;;;;4976595;28;20199;-32
2022/03/30 04:26:59;;;;;;;22.77;10.47;;;10.00;99.90;;;;;;4993501;28;20197;-32
2022/03/30 04:29:25;;;;;;;28.67;10.67;;;9.90;99.90;;;;;;4992997;28;20186;-32
2022/03/30 04:31:52;;;;;;;20.27;9.77;;;9.90;99.90;;;;;;5011257;28;20190;-32
2022/03/30 04:34:18;;;;;;;29.40;9.23;;;9.80;99.90;;;;;;4977130;28;20199;-32
2022/03/30 04:36:44;;;;;;;22.33;9.83;;;9.70;99.90;;;;;;4976993;28;20179;-32
2022/03/30 04:39:10;;;;;;;24.73;10.63;;;9.60;99.90;;;;;;4993072;28;20213;-32
2022/03/30 04:41:35;;;;;;;29.67;10.27;;;9.50;99.90;;;;;;4977238;28;20175;-32
2022/03/30 04:44:01;;;;;;;28.83;10.70;;;9.50;99.90;;;;;;4975914;28;20222;-32
2022/03/30 04:46:27;;;;;;;28.43;10.50;;;9.40;99.90;;;;;;4977085;28;20206;-31
2022/03/30 04:48:53;;;;;;;29.23;10.87;;;9.40;99.90;;;;;;4976612;28;20191;-33
2022/03/30 04:51:19;;;;;;;21.47;10.47;;;9.30;99.90;;;;;;4976416;28;20185;-32
2022/03/30 04:53:44;;;;;;;27.57;11.07;;;9.30;99.90;;;;;;4993163;28;20199;-32
2022/03/30 04:56:10;;;;;;;31.47;11.07;;;9.30;99.90;;;;;;4977091;28;20269;-32
2022/03/30 04:58:36;;;;;;;26.83;11.27;;;9.30;99.90;;;;;;5011394;28;20238;-32
2022/03/30 05:01:02;;;;;;;27.80;10.83;;;9.30;99.90;;;;;;4978751;28;20190;-32
2022/03/30 05:03:28;;;;;;;26.00;11.10;;;9.30;99.90;;;;;;4977613;28;20257;-32
2022/03/30 05:05:54;;;;;;;27.80;13.57;;;9.30;99.90;;;;;;4976746;28;20231;-32
2022/03/30 05:08:20;;;;;;;29.10;14.43;;;9.30;99.90;;;;;;5010633;28;20191;-32
2022/03/30 05:10:50;;;;;;;25.57;13.27;;;9.30;99.90;;;;;;4976497;28;20265;-32
2022/03/30 05:13:16;;;;;;;28.77;14.63;;;9.10;99.90;;;;;;4992943;28;20199;-32
2022/03/30 05:15:42;;;;;;;33.13;14.67;;;9.10;99.90;;;;;;4978872;28;20176;-34
2022/03/30 05:18:08;;;;;;;28.17;14.23;;;9.00;99.90;;;;;;4996546;28;20207;-32
2022/03/30 05:20:34;;;;;;;29.13;14.13;;;8.90;99.90;;;;;;4996345;28;20179;-32
2022/03/30 05:22:59;;;;;;;28.17;14.10;;;8.90;99.90;;;;;;4980361;28;20253;-32
2022/03/30 05:25:25;;;;;;;29.63;14.63;;;8.90;99.90;;;;;;4996368;28;20211;-32
2022/03/30 05:27:51;;;;;;;36.27;15.17;;;8.90;99.90;;;;;;4980385;28;20197;-32
2022/03/30 05:30:17;;;;;;;26.43;14.30;;;9.00;99.90;;;;;;4979922;28;20266;-32
2022/03/30 05:32:45;;;;;;;26.87;14.27;;;9.00;99.90;;;;;;4979839;28;20191;-33
2022/03/30 05:35:13;;;;;;;26.80;12.53;;;9.10;99.90;;;;;;4980128;28;20233;-34
2022/03/30 05:37:39;;;;;;;27.10;11.33;;;9.10;99.90;;;;;;4979767;28;20278;-35
2022/03/30 05:40:06;;;;;;;25.27;10.40;;;9.10;99.90;;;;;;4995879;28;20262;-35
2022/03/30 05:42:32;;;;;;;26.00;11.40;;;9.10;99.90;;;;;;4996097;28;20180;-34
2022/03/30 05:44:58;;;;;;;27.83;10.90;;;9.00;99.90;;;;;;4996184;28;20190;-35
2022/03/30 05:47:24;;;;;;;22.90;11.83;;;9.00;99.90;;;;;;4979808;28;20257;-35
2022/03/30 05:49:50;;;;;;;25.67;11.93;;;9.10;99.90;;;;;;4979782;28;20183;-34
2022/03/30 05:52:16;;;;;;;28.67;11.67;;;9.20;99.90;;;;;;4995658;28;20210;-34
2022/03/30 05:54:42;;;;;;;23.30;10.87;;;9.20;99.90;;;;;;4978463;28;20199;-34
2022/03/30 05:57:08;;;;;;;23.03;12.20;;;9.10;99.90;;;;;;4978271;28;20198;-34
2022/03/30 05:59:37;;;;;;;21.53;11.20;;;9.10;99.90;;;;;;4995173;28;20211;-34
2022/03/30 06:02:05;;;;;;;24.37;11.57;;;9.10;99.90;;;;;;4984771;28;20180;-34
2022/03/30 06:04:31;;;;;;;25.37;10.20;;;9.20;99.90;;;;;;4969032;28;20199;-33
2022/03/30 06:06:57;;;;;;;21.37;9.80;;;9.20;99.90;;;;;;4986527;28;20237;-35
2022/03/30 06:09:23;;;;;;;23.53;9.93;;;9.10;99.90;;;;;;4962218;28;20190;-34
2022/03/30 06:11:49;;;;;;;21.50;11.63;;;9.20;99.90;;;;;;4959971;28;20187;-34
2022/03/30 06:14:15;;;;;;;26.80;12.40;;;9.20;99.90;;;;;;4981961;28;20234;-35
2022/03/30 06:16:42;;;;;;;28.60;13.83;;;9.20;99.90;;;;;;4993039;28;20195;-35
2022/03/30 06:19:10;;;;;;;27.60;13.80;;;9.20;99.90;;;;;;4993600;28;20261;-34
2022/03/30 06:22:16;;;;;;;33.33;14.60;;;9.20;99.90;;;;;;4994517;28;20262;-34
2022/03/30 06:24:45;;;;;;;26.60;13.87;;;9.10;99.90;;;;;;4978672;28;20679;-34
2022/03/30 06:27:12;;;;;;;31.70;14.27;;;9.10;99.90;;;;;;4993756;28;20294;-34
2022/03/30 06:29:39;;;;;;;28.00;11.03;;;9.20;99.90;;;;;;5012610;28;20191;-35
2022/03/30 06:32:06;;;;;;;26.67;11.03;;;9.20;99.90;;;;;;4994324;28;20183;-35
2022/03/30 06:34:37;;;;;;;27.50;11.23;;;9.20;99.90;;;;;;4985352;28;20200;-35
2022/03/30 06:37:05;;;;;;;23.63;11.47;;;9.30;99.90;;;;;;4962756;28;20191;-34
2022/03/30 06:39:32;;;;;;;26.77;12.07;;;9.30;99.90;;;;;;4994245;28;20298;-35
2022/03/30 06:41:58;;;;;;;30.13;12.33;;;9.30;99.90;;;;;;4978901;28;20194;-35
2022/03/30 06:44:24;;;;;;;27.77;11.57;;;9.30;99.90;;;;;;4978606;28;20577;-34
2022/03/30 06:46:50;;;;;;;27.67;12.20;;;9.30;99.90;;;;;;4994597;28;20179;-35
2022/03/30 06:49:16;;;;;;;32.33;12.63;;;9.30;99.90;;;;;;4978902;28;20190;-35
2022/03/30 06:51:42;;;;;;;28.23;11.83;;;9.30;99.90;;;;;;4973653;28;20184;-39
2022/03/30 06:54:07;;;;;;;24.73;11.40;;;9.30;99.90;;;;;;4973098;28;20223;-35
2022/03/30 06:56:34;;;;;;;27.00;11.37;;;9.30;99.90;;;;;;4973905;28;20218;-36
2022/03/30 06:58:59;;;;;;;32.80;12.03;;;9.30;99.90;;;;;;4973668;28;20274;-34
2022/03/30 07:01:26;;;;;;;27.47;13.07;;;9.30;99.90;;;;;;4973967;28;20180;-34
2022/03/30 07:03:51;;;;;;;24.60;12.77;;;9.30;99.90;;;;;;4974477;28;20195;-34
2022/03/30 07:06:17;;;;;;;28.30;12.00;;;9.30;99.90;;;;;;4975389;28;20180;-34
2022/03/30 07:11:27;;;;;;;31.87;13.00;;;9.10;99.90;;;;;;5014295;28;20167;-34
2022/03/30 07:13:56;;;;;;;30.90;13.10;;;9.00;99.90;;;;;;4979062;28;20757;-34
2022/03/30 07:16:23;;;;;;;25.67;12.10;;;8.80;99.90;;;;;;4978125;28;20266;-34
2022/03/30 07:18:50;;;;;;;28.83;13.70;;;8.80;99.90;;;;;;5011791;28;20207;-34
2022/03/30 07:21:16;;;;;;;27.63;14.90;;;8.80;99.90;;;;;;4978225;28;20218;-34
2022/03/30 07:23:42;;;;;;;37.20;14.87;;;8.60;99.90;;;;;;4978791;28;20236;-35
2022/03/30 07:26:08;;;;;;;32.63;14.27;;;8.40;99.90;;;;;;4978453;28;20190;-32
2022/03/30 07:28:37;;;;;;;27.50;13.40;;;8.50;99.90;;;;;;4994350;28;20261;-32
2022/03/30 07:31:03;;;;;;;31.73;13.70;;;8.60;99.90;;;;;;4977413;28;20245;-32
2022/03/30 07:33:31;;;;;;;31.87;13.77;;;8.60;99.90;;;;;;4994197;28;20221;-32
2022/03/30 07:35:57;;;;;;;36.03;17.13;;;8.60;99.90;;;;;;4994291;28;20182;-32
2022/03/30 07:38:23;;;;;;;24.57;13.97;;;8.60;99.90;;;;;;4977340;28;20214;-32
2022/03/30 07:40:50;;;;;;;27.63;12.80;;;8.60;99.90;;;;;;4977538;28;20266;-32
2022/03/30 07:43:17;;;;;;;28.03;14.77;;;8.70;99.90;;;;;;4993854;28;20329;-32
2022/03/30 07:45:44;;;;;;;29.80;13.70;;;8.70;99.90;;;;;;4994003;28;20558;-32
2022/03/30 07:48:10;;;;;;;28.60;13.97;;;8.80;99.90;;;;;;4977754;28;20197;-32
2022/03/30 07:50:37;;;;;;;26.50;13.90;;;8.80;99.90;;;;;;4993703;28;20175;-32
2022/03/30 07:53:03;;;;;;;31.83;13.80;;;8.80;99.90;;;;;;4993681;28;20237;-32
2022/03/30 07:55:29;;;;;;;30.53;13.30;;;8.80;99.90;;;;;;5011427;28;20179;-32
2022/03/30 07:57:55;;;;;;;33.13;13.87;;;8.80;99.90;;;;;;4977602;28;20237;-32
2022/03/30 08:00:22;;;;;;;27.67;13.83;;;8.80;99.90;;;;;;4993398;28;20233;-31
2022/03/30 08:02:49;;;;;;;31.07;13.50;;;8.80;99.90;;;;;;4977724;28;20199;-32
2022/03/30 08:05:16;;;;;;;28.23;14.13;;;8.80;99.90;;;;;;4993571;28;20206;-32
2022/03/30 08:07:44;;;;;;;25.57;12.67;;;8.90;99.90;;;;;;4977101;28;20184;-33
2022/03/30 08:10:10;;;;;;;28.00;13.23;;;8.90;99.90;;;;;;4992819;28;20210;-32
2022/03/30 08:12:38;;;;;;;30.53;13.53;;;9.00;99.90;;;;;;4977428;28;20183;-32
2022/03/30 08:15:04;;;;;;;30.50;14.57;;;9.20;99.90;;;;;;4977275;28;20176;-32
2022/03/30 08:17:30;;;;;;;29.60;14.03;;;9.20;99.90;;;;;;4993545;28;20179;-33
2022/03/30 08:19:59;;;;;;;26.13;12.67;;;9.30;99.90;;;;;;4977173;28;20270;-32
2022/03/30 08:22:25;;;;;;;33.70;13.40;;;9.40;99.90;;;;;;4993506;28;20211;-32
2022/03/30 08:24:56;;;;;;;28.27;12.97;;;9.50;99.90;;;;;;4977242;28;20698;-32
2022/03/30 08:27:24;;;;;;;21.50;11.33;;;9.60;99.90;;;;;;4993387;28;20244;-34
2022/03/30 08:29:51;;;;;;;27.63;11.50;;;9.60;99.90;;;;;;4993205;28;20237;-32
2022/03/30 08:32:18;;;;;;;27.47;12.33;;;9.60;99.90;;;;;;4993003;28;20205;-32
2022/03/30 08:34:44;;;;;;;29.17;11.90;;;9.50;99.90;;;;;;4976935;28;20195;-32
2022/03/30 08:37:11;;;;;;;28.37;11.23;;;9.40;99.90;;;;;;4976958;28;20191;-33
2022/03/30 08:39:37;;;;;;;26.83;11.47;;;9.50;99.90;;;;;;4976528;28;20213;-32
2022/03/30 08:42:05;;;;;;;26.23;11.80;;;9.50;99.90;;;;;;4976954;28;20179;-32
2022/03/30 08:44:33;;;;;;;24.67;11.70;;;9.60;99.90;;;;;;4993055;28;20225;-32
2022/03/30 08:47:00;;;;;;;23.30;11.90;;;9.60;99.90;;;;;;4993062;28;20179;-32
2022/03/30 08:49:37;;;;;;;23.37;12.10;;;9.70;99.90;;;;;;4976942;28;20206;-32
2022/03/30 08:52:07;;;;;;;24.20;11.40;;;9.80;99.90;;;;;;5014774;28;20179;-32
2022/03/30 08:54:35;;;;;;;54.03;28.67;;;9.80;99.90;;;;;;4980987;28;20202;-32
2022/03/30 08:57:01;;;;;;;36.37;19.33;;;9.80;99.90;;;;;;4980923;28;20187;-32
2022/03/30 08:59:27;;;;;;;26.00;12.93;;;9.80;99.90;;;;;;4980480;28;20215;-33
2022/03/30 09:01:55;;;;;;;20.43;11.10;;;9.80;99.90;;;;;;4980732;28;20197;-32
2022/03/30 09:04:21;;;;;;;27.27;11.93;;;9.80;99.90;;;;;;4980379;28;20207;-32
2022/03/30 09:06:54;;;;;;;25.37;12.50;;;9.90;99.90;;;;;;4997041;28;20179;-33
2022/03/30 09:09:35;;;;;;;26.40;12.63;;;9.90;99.90;;;;;;4996939;28;20175;-32
2022/03/30 09:12:07;;;;;;;26.27;13.13;;;9.90;99.90;;;;;;4996884;28;20198;-32
2022/03/30 09:14:36;;;;;;;29.70;12.60;;;10.00;99.90;;;;;;4996851;28;20203;-32
2022/03/30 09:17:04;;;;;;;28.47;11.17;;;10.00;99.90;;;;;;4980194;28;20266;-32
2022/03/30 09:19:38;;;;;;;28.60;12.97;;;10.00;99.90;;;;;;4996434;28;20210;-33
2022/03/30 09:22:07;;;;;;;28.43;11.97;;;10.00;99.90;;;;;;4996577;28;20171;-32
2022/03/30 09:24:35;;;;;;;26.30;11.53;;;9.90;99.90;;;;;;4979730;28;20281;-32
2022/03/30 09:27:03;;;;;;;26.23;12.03;;;9.90;99.90;;;;;;4980366;28;20194;-32
2022/03/30 09:29:36;;;;;;;28.67;11.93;;;9.90;99.90;;;;;;4979982;28;20198;-32
2022/03/30 09:32:09;;;;;;;24.57;13.60;;;9.90;99.90;;;;;;4980350;28;20188;-32
2022/03/30 09:34:47;;;;;;;20.00;11.77;;;9.90;99.90;;;;;;4979865;28;20204;-32
2022/03/30 09:37:13;;;;;;;22.23;10.93;;;9.90;99.90;;;;;;4996291;28;20252;-32
2022/03/30 09:39:40;;;;;;;26.47;11.73;;;10.00;99.90;;;;;;4995554;28;20695;-32
2022/03/30 09:42:08;;;;;;;21.87;10.90;;;10.00;99.90;;;;;;4995976;28;20206;-33
2022/03/30 09:44:55;;;;;;;20.37;11.33;;;10.10;99.90;;;;;;4996508;28;20250;-32
2022/03/30 09:47:23;;;;;;;25.87;11.53;;;10.20;99.90;;;;;;4980133;28;20187;-32
2022/03/30 09:49:54;;;;;;;26.20;11.37;;;10.30;99.90;;;;;;4979698;28;20175;-33
2022/03/30 09:52:26;;;;;;;27.20;11.83;;;10.40;99.90;;;;;;4994988;28;20230;-34
2022/03/30 09:54:58;;;;;;;21.13;10.63;;;10.50;99.90;;;;;;4992956;28;20212;-32
2022/03/30 09:57:44;;;;;;;19.17;10.60;;;10.60;99.90;;;;;;4993840;28;20168;-32
2022/03/30 10:00:17;;;;;;;24.77;10.60;;;10.70;99.90;;;;;;4974964;28;20200;-32
2022/03/30 10:02:53;;;;;;;27.23;11.07;;;10.80;99.90;;;;;;4959947;28;20191;-32
2022/03/30 10:05:22;;;;;;;24.93;11.23;;;10.90;99.90;;;;;;4960104;28;20636;-32
2022/03/30 10:07:48;;;;;;;24.07;11.87;;;11.00;99.90;;;;;;4969676;28;20190;-33
2022/03/30 10:10:17;;;;;;;24.63;10.50;;;11.10;99.90;;;;;;4979351;28;20203;-32
2022/03/30 10:12:44;;;;;;;30.27;11.97;;;11.10;99.90;;;;;;4995746;28;20230;-32
2022/03/30 10:15:11;;;;;;;30.27;12.47;;;11.20;99.90;;;;;;4979115;28;20541;-32
2022/03/30 10:17:37;;;;;;;26.80;11.30;;;11.30;99.90;;;;;;4995263;28;20203;-32
2022/03/30 10:20:05;;;;;;;25.97;11.30;;;11.30;99.90;;;;;;4995469;28;20198;-32
2022/03/30 10:22:56;;;;;;;27.67;11.13;;;11.40;99.90;;;;;;4995375;28;20258;-32
2022/03/30 10:25:33;;;;;;;26.00;11.57;;;11.30;99.90;;;;;;4995322;28;20191;-32
2022/03/30 10:28:20;;;;;;;20.97;11.10;;;11.40;99.90;;;;;;4979266;28;20183;-32
2022/03/30 10:30:54;;;;;;;17.90;9.43;;;11.50;99.90;;;;;;4979097;28;20188;-32
2022/03/30 10:33:44;;;;;;;13.17;7.40;;;11.50;99.90;;;;;;4995164;28;20207;-32
2022/03/30 10:36:31;;;;;;;12.67;7.27;;;11.60;99.90;;;;;;4978963;28;20250;-32
2022/03/30 10:39:24;;;;;;;14.40;6.90;;;11.60;99.90;;;;;;4994733;28;20225;-32
2022/03/30 10:42:05;;;;;;;15.17;6.87;;;11.70;99.90;;;;;;4978870;28;20190;-33
2022/03/30 10:44:49;;;;;;;12.07;7.00;;;11.70;99.90;;;;;;4994841;28;20347;-33
2022/03/30 10:47:16;;;;;;;15.70;7.17;;;11.70;99.90;;;;;;4978835;28;20624;-32
2022/03/30 10:49:46;;;;;;;16.40;8.00;;;11.70;99.90;;;;;;4978848;28;20294;-32
2022/03/30 10:52:37;;;;;;;13.70;7.17;;;11.60;99.90;;;;;;4978790;28;20184;-33
2022/03/30 10:55:12;;;;;;;12.43;7.40;;;11.60;99.90;;;;;;4978767;28;20203;-33
2022/03/30 10:58:08;;;;;;;15.00;7.17;;;11.70;99.90;;;;;;4994876;28;20190;-32
2022/03/30 11:00:39;;;;;;;15.73;7.17;;;11.70;99.90;;;;;;4994280;28;20191;-33
2022/03/30 11:03:07;;;;;;;13.93;6.80;;;11.70;99.90;;;;;;4994632;28;20201;-32
2022/03/30 11:05:33;;;;;;;13.33;6.50;;;11.80;99.90;;;;;;4994561;28;20172;-32
2022/03/30 11:08:00;;;;;;;13.03;7.27;;;11.70;99.90;;;;;;4978636;28;20199;-32
2022/03/30 11:10:27;;;;;;;11.23;6.90;;;11.80;99.90;;;;;;4994612;28;20184;-33
2022/03/30 11:12:56;;;;;;;13.23;6.47;;;11.80;99.90;;;;;;4977455;28;20250;-33
2022/03/30 11:15:23;;;;;;;15.43;6.80;;;11.90;99.90;;;;;;4994145;28;20179;-33
2022/03/30 11:17:49;;;;;;;17.20;6.87;;;11.80;99.90;;;;;;4984097;28;20724;-32
2022/03/30 11:20:15;;;;;;;12.83;7.30;;;11.90;99.90;;;;;;4985176;28;20180;-32
2022/03/30 11:22:44;;;;;;;11.83;6.43;;;12.10;99.90;;;;;;4966879;28;20216;-33
2022/03/30 11:25:21;;;;;;;13.37;7.43;;;12.10;99.90;;;;;;4984214;28;20172;-32
2022/03/30 11:27:59;;;;;;;12.97;6.93;;;12.30;99.90;;;;;;4999834;28;20640;-33
2022/03/30 11:30:29;;;;;;;15.60;7.57;;;12.50;99.90;;;;;;4968986;28;20184;-32
2022/03/30 11:33:02;;;;;;;14.03;6.47;;;12.50;99.90;;;;;;4984823;28;20293;-32
2022/03/30 11:35:34;;;;;;;13.47;6.53;;;12.60;99.90;;;;;;5000192;28;20270;-34
2022/03/30 11:38:17;;;;;;;11.67;6.10;;;12.50;99.90;;;;;;4985504;28;20205;-33
2022/03/30 11:40:45;;;;;;;10.23;5.83;;;12.50;99.90;;;;;;4969296;28;20207;-33
2022/03/30 11:43:13;;;;;;;14.77;6.63;;;12.40;99.90;;;;;;4969408;28;20218;-33
2022/03/30 11:45:40;;;;;;;17.00;6.10;;;12.40;99.90;;;;;;4985744;28;20176;-33
2022/03/30 11:48:10;;;;;;;14.70;7.43;;;12.40;99.90;;;;;;4993836;28;20181;-33
2022/03/30 11:50:46;;;;;;;13.47;6.73;;;12.40;99.90;;;;;;4977480;28;20209;-33
2022/03/30 11:53:21;;;;;;;10.37;5.70;;;12.60;99.90;;;;;;4973247;28;20207;-33
2022/03/30 11:55:59;;;;;;;11.97;6.23;;;12.70;99.90;;;;;;4974804;28;20185;-33
2022/03/30 11:58:34;;;;;;;13.00;5.87;;;12.90;99.90;;;;;;4993812;28;20376;-32
2022/03/30 12:01:03;;;;;;;14.23;6.47;;;12.90;99.90;;;;;;4993340;28;20186;-33
2022/03/30 12:03:29;;;;;;;12.23;5.77;;;12.90;99.90;;;;;;4976780;28;20195;-33
2022/03/30 12:06:00;;;;;;;10.37;5.33;;;12.90;99.90;;;;;;4987119;28;20181;-34
2022/03/30 12:08:40;;;;;;;12.93;6.33;;;12.90;99.90;;;;;;4947831;28;20222;-33
2022/03/30 12:11:06;;;;;;;10.93;5.73;;;13.00;99.90;;;;;;4977985;28;20190;-33
2022/03/30 12:13:33;;;;;;;13.47;5.47;;;13.00;99.90;;;;;;5007014;28;20205;-32
2022/03/30 12:16:12;;;;;;;9.53;5.27;;;13.00;99.90;;;;;;4998978;28;20196;-33
2022/03/30 12:18:54;;;;;;;11.43;5.50;;;12.90;99.90;;;;;;4982320;28;20309;-33
2022/03/30 12:21:23;;;;;;;13.77;5.70;;;12.90;99.90;;;;;;4969792;28;20244;-34
2022/03/30 12:23:57;;;;;;;11.67;5.60;;;12.90;99.90;;;;;;4988117;28;20201;-32
2022/03/30 12:26:25;;;;;;;13.27;6.27;;;12.80;99.90;;;;;;4982136;28;20174;-33
2022/03/30 12:29:00;;;;;;;9.20;5.30;;;12.80;99.90;;;;;;4966046;28;20290;-36
2022/03/30 12:31:26;;;;;;;7.87;4.93;;;12.70;99.90;;;;;;4982438;28;20182;-36
2022/03/30 12:33:52;;;;;;;13.37;7.10;;;12.80;99.90;;;;;;4967339;28;20217;-36
2022/03/30 12:36:20;;;;;;;11.80;7.23;;;12.70;99.90;;;;;;4973454;28;20188;-36
2022/03/30 12:38:51;;;;;;;10.57;6.93;;;12.60;99.90;;;;;;4992631;28;20267;-35
2022/03/30 12:41:25;;;;;;;11.37;7.13;;;12.60;99.90;;;;;;4981861;28;20182;-35
2022/03/30 12:44:02;;;;;;;11.50;7.30;;;12.70;99.90;;;;;;4968169;28;20344;-35
2022/03/30 12:46:35;;;;;;;24.57;16.93;;;12.60;99.90;;;;;;4951077;28;20183;-35